sensor_id;sensor_type;location;lat;lon;timestamp;P1;durP1;ratioP1;P2;durP2;ratioP2
12363;SDS011;6246;50.826;4.712;2023-02-18T00:00:39;10.33;;;6.73;;
12363;SDS011;6246;50.826;4.712;2023-02-18T00:03:05;13.17;;;7.20;;
12363;SDS011;6246;50.826;4.712;2023-02-18T00:05:31;12.23;;;7.83;;
12363;SDS011;6246;50.826;4.712;2023-02-18T00:07:57;10.63;;;7.50;;
12363;SDS011;6246;50.826;4.712;2023-02-18T00:10:23;8.57;;;5.97;;
12363;SDS011;6246;50.826;4.712;2023-02-18T00:12:49;9.30;;;6.00;;
12363;SDS011;6246;50.826;4.712;2023-02-18T00:15:15;10.13;;;6.47;;
12363;SDS011;6246;50.826;4.712;2023-02-18T00:17:41;8.33;;;5.57;;
12363;SDS011;6246;50.826;4.712;2023-02-18T00:20:07;16.17;;;7.00;;
12363;SDS011;6246;50.826;4.712;2023-02-18T00:22:33;10.50;;;6.73;;
12363;SDS011;6246;50.826;4.712;2023-02-18T00:25:00;10.73;;;6.10;;
12363;SDS011;6246;50.826;4.712;2023-02-18T00:27:26;9.27;;;5.47;;
12363;SDS011;6246;50.826;4.712;2023-02-18T00:29:52;9.93;;;6.23;;
12363;SDS011;6246;50.826;4.712;2023-02-18T00:32:18;11.77;;;6.50;;
12363;SDS011;6246;50.826;4.712;2023-02-18T00:34:44;11.23;;;5.77;;
12363;SDS011;6246;50.826;4.712;2023-02-18T00:37:10;10.37;;;6.00;;
12363;SDS011;6246;50.826;4.712;2023-02-18T00:39:36;10.60;;;6.57;;
12363;SDS011;6246;50.826;4.712;2023-02-18T00:42:02;11.37;;;6.80;;
12363;SDS011;6246;50.826;4.712;2023-02-18T00:44:28;9.00;;;6.10;;
12363;SDS011;6246;50.826;4.712;2023-02-18T00:46:54;8.33;;;5.60;;
12363;SDS011;6246;50.826;4.712;2023-02-18T00:49:20;7.97;;;5.93;;
12363;SDS011;6246;50.826;4.712;2023-02-18T00:51:46;9.67;;;5.53;;
12363;SDS011;6246;50.826;4.712;2023-02-18T00:54:12;8.70;;;5.70;;
12363;SDS011;6246;50.826;4.712;2023-02-18T00:56:38;10.03;;;5.77;;
12363;SDS011;6246;50.826;4.712;2023-02-18T00:59:04;8.97;;;5.53;;
12363;SDS011;6246;50.826;4.712;2023-02-18T01:01:30;9.23;;;5.63;;
12363;SDS011;6246;50.826;4.712;2023-02-18T01:03:57;8.00;;;5.57;;
12363;SDS011;6246;50.826;4.712;2023-02-18T01:06:23;6.93;;;5.50;;
12363;SDS011;6246;50.826;4.712;2023-02-18T01:08:49;9.77;;;5.60;;
12363;SDS011;6246;50.826;4.712;2023-02-18T01:11:15;7.80;;;5.87;;
12363;SDS011;6246;50.826;4.712;2023-02-18T01:13:41;7.07;;;5.20;;
12363;SDS011;6246;50.826;4.712;2023-02-18T01:16:07;7.73;;;5.70;;
12363;SDS011;6246;50.826;4.712;2023-02-18T01:18:34;7.90;;;5.90;;
12363;SDS011;6246;50.826;4.712;2023-02-18T01:21:00;9.03;;;5.27;;
12363;SDS011;6246;50.826;4.712;2023-02-18T01:23:26;10.83;;;5.50;;
12363;SDS011;6246;50.826;4.712;2023-02-18T01:25:53;6.40;;;5.03;;
12363;SDS011;6246;50.826;4.712;2023-02-18T01:28:20;5.27;;;4.63;;
12363;SDS011;6246;50.826;4.712;2023-02-18T01:30:49;7.37;;;4.83;;
12363;SDS011;6246;50.826;4.712;2023-02-18T01:33:15;7.43;;;5.10;;
12363;SDS011;6246;50.826;4.712;2023-02-18T01:35:41;8.57;;;5.50;;
12363;SDS011;6246;50.826;4.712;2023-02-18T01:38:08;8.13;;;5.30;;
12363;SDS011;6246;50.826;4.712;2023-02-18T01:40:34;6.97;;;4.80;;
12363;SDS011;6246;50.826;4.712;2023-02-18T01:43:01;6.27;;;5.17;;
12363;SDS011;6246;50.826;4.712;2023-02-18T01:48:06;6.37;;;4.77;;
12363;SDS011;6246;50.826;4.712;2023-02-18T01:50:35;5.57;;;4.67;;
12363;SDS011;6246;50.826;4.712;2023-02-18T01:53:01;6.53;;;4.70;;
12363;SDS011;6246;50.826;4.712;2023-02-18T01:55:28;6.80;;;5.17;;
12363;SDS011;6246;50.826;4.712;2023-02-18T01:57:54;7.20;;;5.00;;
12363;SDS011;6246;50.826;4.712;2023-02-18T02:00:20;6.03;;;4.40;;
12363;SDS011;6246;50.826;4.712;2023-02-18T02:02:47;6.03;;;4.50;;
12363;SDS011;6246;50.826;4.712;2023-02-18T02:05:13;6.60;;;4.37;;
12363;SDS011;6246;50.826;4.712;2023-02-18T02:07:40;5.80;;;4.17;;
12363;SDS011;6246;50.826;4.712;2023-02-18T02:10:06;6.40;;;4.33;;
12363;SDS011;6246;50.826;4.712;2023-02-18T02:41:01;4.97;;;4.00;;
12363;SDS011;6246;50.826;4.712;2023-02-18T02:43:47;6.87;;;4.23;;
12363;SDS011;6246;50.826;4.712;2023-02-18T02:46:27;5.47;;;4.00;;
12363;SDS011;6246;50.826;4.712;2023-02-18T02:51:41;5.83;;;4.17;;
12363;SDS011;6246;50.826;4.712;2023-02-18T02:54:19;3.57;;;3.27;;
12363;SDS011;6246;50.826;4.712;2023-02-18T02:56:45;3.60;;;3.30;;
12363;SDS011;6246;50.826;4.712;2023-02-18T02:59:18;3.73;;;3.33;;
12363;SDS011;6246;50.826;4.712;2023-02-18T03:17:39;3.17;;;2.87;;
12363;SDS011;6246;50.826;4.712;2023-02-18T03:22:35;3.67;;;3.23;;
12363;SDS011;6246;50.826;4.712;2023-02-18T03:25:03;4.97;;;3.50;;
12363;SDS011;6246;50.826;4.712;2023-02-18T03:27:30;5.27;;;3.60;;
12363;SDS011;6246;50.826;4.712;2023-02-18T03:30:15;3.93;;;3.13;;
12363;SDS011;6246;50.826;4.712;2023-02-18T03:32:42;5.53;;;3.00;;
12363;SDS011;6246;50.826;4.712;2023-02-18T03:35:11;5.43;;;3.03;;
12363;SDS011;6246;50.826;4.712;2023-02-18T03:37:40;4.57;;;3.30;;
12363;SDS011;6246;50.826;4.712;2023-02-18T03:40:08;3.13;;;2.47;;
12363;SDS011;6246;50.826;4.712;2023-02-18T03:42:34;3.23;;;2.97;;
12363;SDS011;6246;50.826;4.712;2023-02-18T03:45:01;3.53;;;3.13;;
12363;SDS011;6246;50.826;4.712;2023-02-18T03:47:27;4.03;;;3.07;;
12363;SDS011;6246;50.826;4.712;2023-02-18T03:49:53;3.03;;;2.80;;
12363;SDS011;6246;50.826;4.712;2023-02-18T03:52:19;3.00;;;2.77;;
12363;SDS011;6246;50.826;4.712;2023-02-18T03:54:45;4.90;;;3.13;;
12363;SDS011;6246;50.826;4.712;2023-02-18T03:57:11;3.00;;;2.70;;
12363;SDS011;6246;50.826;4.712;2023-02-18T03:59:37;3.90;;;2.73;;
12363;SDS011;6246;50.826;4.712;2023-02-18T04:02:03;3.20;;;2.90;;
12363;SDS011;6246;50.826;4.712;2023-02-18T04:04:29;3.17;;;2.87;;
12363;SDS011;6246;50.826;4.712;2023-02-18T04:06:55;3.37;;;2.90;;
12363;SDS011;6246;50.826;4.712;2023-02-18T04:09:21;3.50;;;3.20;;
12363;SDS011;6246;50.826;4.712;2023-02-18T04:11:47;3.60;;;2.83;;
12363;SDS011;6246;50.826;4.712;2023-02-18T04:14:13;4.57;;;3.07;;
12363;SDS011;6246;50.826;4.712;2023-02-18T04:16:39;3.87;;;2.70;;
12363;SDS011;6246;50.826;4.712;2023-02-18T04:19:06;2.80;;;2.60;;
12363;SDS011;6246;50.826;4.712;2023-02-18T04:21:32;3.03;;;2.80;;
12363;SDS011;6246;50.826;4.712;2023-02-18T04:23:58;3.30;;;3.00;;
12363;SDS011;6246;50.826;4.712;2023-02-18T04:26:24;3.00;;;2.70;;
12363;SDS011;6246;50.826;4.712;2023-02-18T04:28:50;2.90;;;2.70;;
12363;SDS011;6246;50.826;4.712;2023-02-18T04:31:16;2.70;;;2.50;;
12363;SDS011;6246;50.826;4.712;2023-02-18T04:33:42;2.60;;;2.40;;
12363;SDS011;6246;50.826;4.712;2023-02-18T04:36:08;3.50;;;2.57;;
12363;SDS011;6246;50.826;4.712;2023-02-18T04:38:34;3.43;;;2.37;;
12363;SDS011;6246;50.826;4.712;2023-02-18T04:41:00;3.43;;;2.73;;
12363;SDS011;6246;50.826;4.712;2023-02-18T04:43:26;3.13;;;2.90;;
12363;SDS011;6246;50.826;4.712;2023-02-18T04:45:53;3.23;;;2.93;;
12363;SDS011;6246;50.826;4.712;2023-02-18T04:48:19;3.33;;;3.03;;
12363;SDS011;6246;50.826;4.712;2023-02-18T04:50:45;2.57;;;2.33;;
12363;SDS011;6246;50.826;4.712;2023-02-18T04:53:11;2.80;;;2.60;;
12363;SDS011;6246;50.826;4.712;2023-02-18T04:55:37;2.60;;;2.40;;
12363;SDS011;6246;50.826;4.712;2023-02-18T04:58:03;3.80;;;2.63;;
12363;SDS011;6246;50.826;4.712;2023-02-18T05:00:29;2.70;;;2.50;;
12363;SDS011;6246;50.826;4.712;2023-02-18T05:02:55;3.17;;;2.90;;
12363;SDS011;6246;50.826;4.712;2023-02-18T05:05:21;2.73;;;2.53;;
12363;SDS011;6246;50.826;4.712;2023-02-18T05:07:47;3.13;;;2.83;;
12363;SDS011;6246;50.826;4.712;2023-02-18T05:10:14;3.17;;;2.57;;
12363;SDS011;6246;50.826;4.712;2023-02-18T05:12:40;2.93;;;2.73;;
12363;SDS011;6246;50.826;4.712;2023-02-18T05:15:06;2.73;;;2.60;;
12363;SDS011;6246;50.826;4.712;2023-02-18T05:17:33;4.47;;;3.23;;
12363;SDS011;6246;50.826;4.712;2023-02-18T05:19:59;4.53;;;3.13;;
12363;SDS011;6246;50.826;4.712;2023-02-18T05:22:25;4.47;;;2.80;;
12363;SDS011;6246;50.826;4.712;2023-02-18T05:24:51;3.37;;;3.07;;
12363;SDS011;6246;50.826;4.712;2023-02-18T05:27:17;3.27;;;2.97;;
12363;SDS011;6246;50.826;4.712;2023-02-18T05:29:43;3.43;;;3.13;;
12363;SDS011;6246;50.826;4.712;2023-02-18T05:32:09;2.87;;;2.67;;
12363;SDS011;6246;50.826;4.712;2023-02-18T05:34:35;3.50;;;3.20;;
12363;SDS011;6246;50.826;4.712;2023-02-18T05:37:01;4.00;;;2.57;;
12363;SDS011;6246;50.826;4.712;2023-02-18T05:39:27;3.17;;;2.83;;
12363;SDS011;6246;50.826;4.712;2023-02-18T05:41:53;5.73;;;2.93;;
12363;SDS011;6246;50.826;4.712;2023-02-18T05:44:19;3.20;;;3.00;;
12363;SDS011;6246;50.826;4.712;2023-02-18T05:46:54;2.70;;;2.50;;
12363;SDS011;6246;50.826;4.712;2023-02-18T05:49:20;2.83;;;2.63;;
12363;SDS011;6246;50.826;4.712;2023-02-18T05:51:46;4.37;;;3.00;;
12363;SDS011;6246;50.826;4.712;2023-02-18T05:54:12;2.83;;;2.63;;
12363;SDS011;6246;50.826;4.712;2023-02-18T05:56:38;3.90;;;2.80;;
12363;SDS011;6246;50.826;4.712;2023-02-18T05:59:05;3.50;;;2.50;;
12363;SDS011;6246;50.826;4.712;2023-02-18T06:01:31;3.10;;;2.90;;
12363;SDS011;6246;50.826;4.712;2023-02-18T06:03:57;4.40;;;2.73;;
12363;SDS011;6246;50.826;4.712;2023-02-18T06:06:23;3.00;;;2.80;;
12363;SDS011;6246;50.826;4.712;2023-02-18T06:08:49;3.17;;;2.87;;
12363;SDS011;6246;50.826;4.712;2023-02-18T06:11:15;2.47;;;2.27;;
12363;SDS011;6246;50.826;4.712;2023-02-18T06:13:41;3.00;;;2.80;;
12363;SDS011;6246;50.826;4.712;2023-02-18T06:16:07;2.87;;;2.67;;
12363;SDS011;6246;50.826;4.712;2023-02-18T06:18:33;2.57;;;2.47;;
12363;SDS011;6246;50.826;4.712;2023-02-18T06:20:59;2.70;;;2.50;;
12363;SDS011;6246;50.826;4.712;2023-02-18T06:23:25;3.30;;;3.00;;
12363;SDS011;6246;50.826;4.712;2023-02-18T06:25:51;4.53;;;3.07;;
12363;SDS011;6246;50.826;4.712;2023-02-18T06:28:17;11.77;;;3.00;;
12363;SDS011;6246;50.826;4.712;2023-02-18T06:30:44;3.90;;;2.90;;
12363;SDS011;6246;50.826;4.712;2023-02-18T06:33:10;3.47;;;2.50;;
12363;SDS011;6246;50.826;4.712;2023-02-18T06:35:36;2.90;;;2.70;;
12363;SDS011;6246;50.826;4.712;2023-02-18T06:38:02;2.90;;;2.70;;
12363;SDS011;6246;50.826;4.712;2023-02-18T06:40:28;5.10;;;2.43;;
12363;SDS011;6246;50.826;4.712;2023-02-18T06:42:54;2.40;;;2.27;;
12363;SDS011;6246;50.826;4.712;2023-02-18T06:45:20;6.13;;;2.67;;
12363;SDS011;6246;50.826;4.712;2023-02-18T06:47:46;3.13;;;2.47;;
12363;SDS011;6246;50.826;4.712;2023-02-18T06:50:13;3.57;;;2.50;;
12363;SDS011;6246;50.826;4.712;2023-02-18T06:52:39;2.33;;;2.23;;
12363;SDS011;6246;50.826;4.712;2023-02-18T06:55:05;5.90;;;2.17;;
12363;SDS011;6246;50.826;4.712;2023-02-18T06:57:33;2.87;;;2.40;;
12363;SDS011;6246;50.826;4.712;2023-02-18T06:59:59;3.23;;;2.77;;
12363;SDS011;6246;50.826;4.712;2023-02-18T07:02:26;2.40;;;2.20;;
12363;SDS011;6246;50.826;4.712;2023-02-18T07:04:52;2.47;;;2.13;;
12363;SDS011;6246;50.826;4.712;2023-02-18T07:07:18;4.37;;;2.43;;
12363;SDS011;6246;50.826;4.712;2023-02-18T07:09:44;7.30;;;2.60;;
12363;SDS011;6246;50.826;4.712;2023-02-18T07:12:11;3.97;;;2.50;;
12363;SDS011;6246;50.826;4.712;2023-02-18T07:14:37;5.33;;;2.50;;
12363;SDS011;6246;50.826;4.712;2023-02-18T07:17:03;4.53;;;2.80;;
12363;SDS011;6246;50.826;4.712;2023-02-18T07:19:29;3.77;;;2.53;;
12363;SDS011;6246;50.826;4.712;2023-02-18T07:21:55;2.60;;;2.20;;
12363;SDS011;6246;50.826;4.712;2023-02-18T07:24:22;3.87;;;2.03;;
12363;SDS011;6246;50.826;4.712;2023-02-18T07:26:48;4.17;;;2.40;;
12363;SDS011;6246;50.826;4.712;2023-02-18T07:29:14;6.40;;;2.00;;
12363;SDS011;6246;50.826;4.712;2023-02-18T07:31:40;2.97;;;2.43;;
12363;SDS011;6246;50.826;4.712;2023-02-18T07:34:06;3.87;;;2.60;;
12363;SDS011;6246;50.826;4.712;2023-02-18T07:36:32;4.83;;;2.40;;
12363;SDS011;6246;50.826;4.712;2023-02-18T07:38:58;2.50;;;2.30;;
12363;SDS011;6246;50.826;4.712;2023-02-18T07:41:24;3.33;;;2.23;;
12363;SDS011;6246;50.826;4.712;2023-02-18T07:43:50;3.20;;;2.07;;
12363;SDS011;6246;50.826;4.712;2023-02-18T07:46:16;4.67;;;2.13;;
12363;SDS011;6246;50.826;4.712;2023-02-18T07:48:42;2.37;;;2.17;;
12363;SDS011;6246;50.826;4.712;2023-02-18T07:51:09;3.03;;;2.27;;
12363;SDS011;6246;50.826;4.712;2023-02-18T07:53:36;3.67;;;2.33;;
12363;SDS011;6246;50.826;4.712;2023-02-18T07:56:02;4.03;;;2.13;;
12363;SDS011;6246;50.826;4.712;2023-02-18T07:58:30;4.03;;;2.37;;
12363;SDS011;6246;50.826;4.712;2023-02-18T08:00:56;4.70;;;2.30;;
12363;SDS011;6246;50.826;4.712;2023-02-18T08:03:24;2.60;;;2.30;;
12363;SDS011;6246;50.826;4.712;2023-02-18T08:05:51;3.17;;;1.93;;
12363;SDS011;6246;50.826;4.712;2023-02-18T08:08:18;2.17;;;1.50;;
12363;SDS011;6246;50.826;4.712;2023-02-18T08:10:44;2.20;;;2.00;;
12363;SDS011;6246;50.826;4.712;2023-02-18T08:13:11;2.70;;;2.10;;
12363;SDS011;6246;50.826;4.712;2023-02-18T08:15:37;2.27;;;1.70;;
12363;SDS011;6246;50.826;4.712;2023-02-18T08:18:03;5.27;;;2.70;;
12363;SDS011;6246;50.826;4.712;2023-02-18T08:20:29;1.53;;;1.43;;
12363;SDS011;6246;50.826;4.712;2023-02-18T08:22:56;2.60;;;2.00;;
12363;SDS011;6246;50.826;4.712;2023-02-18T08:25:22;3.27;;;1.83;;
12363;SDS011;6246;50.826;4.712;2023-02-18T08:27:48;2.50;;;2.10;;
12363;SDS011;6246;50.826;4.712;2023-02-18T08:30:14;2.80;;;2.07;;
12363;SDS011;6246;50.826;4.712;2023-02-18T08:32:40;3.27;;;2.17;;
12363;SDS011;6246;50.826;4.712;2023-02-18T08:35:06;2.50;;;1.80;;
12363;SDS011;6246;50.826;4.712;2023-02-18T08:37:32;2.43;;;2.03;;
12363;SDS011;6246;50.826;4.712;2023-02-18T08:40:00;2.00;;;1.63;;
12363;SDS011;6246;50.826;4.712;2023-02-18T08:42:26;2.40;;;1.70;;
12363;SDS011;6246;50.826;4.712;2023-02-18T08:44:52;2.63;;;2.33;;
12363;SDS011;6246;50.826;4.712;2023-02-18T08:47:18;2.53;;;2.10;;
12363;SDS011;6246;50.826;4.712;2023-02-18T08:49:44;2.90;;;2.10;;
12363;SDS011;6246;50.826;4.712;2023-02-18T08:52:10;3.63;;;1.80;;
12363;SDS011;6246;50.826;4.712;2023-02-18T08:54:36;2.47;;;2.17;;
12363;SDS011;6246;50.826;4.712;2023-02-18T08:57:02;2.40;;;2.00;;
12363;SDS011;6246;50.826;4.712;2023-02-18T08:59:28;1.53;;;1.43;;
12363;SDS011;6246;50.826;4.712;2023-02-18T09:01:54;3.27;;;2.10;;
12363;SDS011;6246;50.826;4.712;2023-02-18T09:04:20;1.80;;;1.50;;
12363;SDS011;6246;50.826;4.712;2023-02-18T09:06:47;3.37;;;2.07;;
12363;SDS011;6246;50.826;4.712;2023-02-18T09:09:14;2.90;;;1.80;;
12363;SDS011;6246;50.826;4.712;2023-02-18T09:11:40;3.67;;;2.20;;
12363;SDS011;6246;50.826;4.712;2023-02-18T09:14:06;2.07;;;1.77;;
12363;SDS011;6246;50.826;4.712;2023-02-18T09:16:32;4.53;;;2.03;;
12363;SDS011;6246;50.826;4.712;2023-02-18T09:18:58;2.20;;;1.57;;
12363;SDS011;6246;50.826;4.712;2023-02-18T09:21:25;3.23;;;1.90;;
12363;SDS011;6246;50.826;4.712;2023-02-18T09:23:51;1.80;;;1.37;;
12363;SDS011;6246;50.826;4.712;2023-02-18T09:26:18;2.07;;;1.60;;
12363;SDS011;6246;50.826;4.712;2023-02-18T09:28:49;3.63;;;1.60;;
12363;SDS011;6246;50.826;4.712;2023-02-18T09:31:17;1.70;;;1.60;;
12363;SDS011;6246;50.826;4.712;2023-02-18T09:33:44;3.33;;;1.80;;
12363;SDS011;6246;50.826;4.712;2023-02-18T09:36:10;3.73;;;1.70;;
12363;SDS011;6246;50.826;4.712;2023-02-18T09:38:37;3.60;;;2.03;;
12363;SDS011;6246;50.826;4.712;2023-02-18T09:41:04;2.57;;;1.90;;
12363;SDS011;6246;50.826;4.712;2023-02-18T09:43:41;3.33;;;1.43;;
12363;SDS011;6246;50.826;4.712;2023-02-18T09:46:17;3.37;;;1.70;;
12363;SDS011;6246;50.826;4.712;2023-02-18T09:48:44;2.70;;;1.60;;
12363;SDS011;6246;50.826;4.712;2023-02-18T09:51:15;1.60;;;1.47;;
12363;SDS011;6246;50.826;4.712;2023-02-18T09:53:41;1.70;;;1.47;;
12363;SDS011;6246;50.826;4.712;2023-02-18T09:56:12;3.07;;;1.60;;
12363;SDS011;6246;50.826;4.712;2023-02-18T09:58:39;2.10;;;1.50;;
12363;SDS011;6246;50.826;4.712;2023-02-18T10:01:10;2.83;;;1.30;;
12363;SDS011;6246;50.826;4.712;2023-02-18T10:03:40;4.57;;;1.60;;
12363;SDS011;6246;50.826;4.712;2023-02-18T10:06:24;6.93;;;1.53;;
12363;SDS011;6246;50.826;4.712;2023-02-18T10:08:51;2.87;;;1.70;;
12363;SDS011;6246;50.826;4.712;2023-02-18T10:13:44;4.77;;;1.63;;
12363;SDS011;6246;50.826;4.712;2023-02-18T10:16:14;3.83;;;1.97;;
12363;SDS011;6246;50.826;4.712;2023-02-18T10:18:41;1.63;;;1.40;;
12363;SDS011;6246;50.826;4.712;2023-02-18T10:21:11;3.20;;;1.30;;
12363;SDS011;6246;50.826;4.712;2023-02-18T10:23:39;2.40;;;1.57;;
12363;SDS011;6246;50.826;4.712;2023-02-18T10:26:06;5.40;;;1.90;;
12363;SDS011;6246;50.826;4.712;2023-02-18T10:28:35;7.50;;;1.53;;
12363;SDS011;6246;50.826;4.712;2023-02-18T10:31:02;6.83;;;1.63;;
12363;SDS011;6246;50.826;4.712;2023-02-18T10:51:35;2.23;;;1.47;;
12363;SDS011;6246;50.826;4.712;2023-02-18T10:54:02;3.73;;;1.37;;
12363;SDS011;6246;50.826;4.712;2023-02-18T10:59:11;1.80;;;1.50;;
12363;SDS011;6246;50.826;4.712;2023-02-18T11:01:38;4.97;;;1.73;;
12363;SDS011;6246;50.826;4.712;2023-02-18T11:04:06;2.80;;;1.73;;
12363;SDS011;6246;50.826;4.712;2023-02-18T11:06:33;2.53;;;1.27;;
12363;SDS011;6246;50.826;4.712;2023-02-18T11:09:02;1.87;;;1.37;;
12363;SDS011;6246;50.826;4.712;2023-02-18T11:13:56;4.57;;;1.63;;
12363;SDS011;6246;50.826;4.712;2023-02-18T11:16:23;4.73;;;1.93;;
12363;SDS011;6246;50.826;4.712;2023-02-18T11:19:00;5.43;;;1.73;;
12363;SDS011;6246;50.826;4.712;2023-02-18T11:21:34;3.73;;;1.67;;
12363;SDS011;6246;50.826;4.712;2023-02-18T11:24:08;4.33;;;2.10;;
12363;SDS011;6246;50.826;4.712;2023-02-18T11:26:35;4.23;;;1.43;;
12363;SDS011;6246;50.826;4.712;2023-02-18T11:29:04;2.07;;;1.40;;
12363;SDS011;6246;50.826;4.712;2023-02-18T11:31:37;2.67;;;1.23;;
12363;SDS011;6246;50.826;4.712;2023-02-18T11:34:04;3.43;;;1.60;;
12363;SDS011;6246;50.826;4.712;2023-02-18T11:36:31;2.97;;;1.40;;
12363;SDS011;6246;50.826;4.712;2023-02-18T11:39:05;4.43;;;1.50;;
12363;SDS011;6246;50.826;4.712;2023-02-18T11:41:39;4.53;;;2.23;;
12363;SDS011;6246;50.826;4.712;2023-02-18T11:47:03;2.87;;;1.20;;
12363;SDS011;6246;50.826;4.712;2023-02-18T11:49:30;2.20;;;1.50;;
12363;SDS011;6246;50.826;4.712;2023-02-18T11:54:36;4.57;;;1.70;;
12363;SDS011;6246;50.826;4.712;2023-02-18T11:57:03;3.07;;;1.40;;
12363;SDS011;6246;50.826;4.712;2023-02-18T11:59:34;1.40;;;1.00;;
12363;SDS011;6246;50.826;4.712;2023-02-18T12:04:42;3.80;;;1.60;;
12363;SDS011;6246;50.826;4.712;2023-02-18T12:09:47;2.73;;;1.60;;
12363;SDS011;6246;50.826;4.712;2023-02-18T12:12:15;4.03;;;1.70;;
12363;SDS011;6246;50.826;4.712;2023-02-18T12:14:42;3.53;;;1.50;;
12363;SDS011;6246;50.826;4.712;2023-02-18T12:30:52;3.90;;;1.27;;
12363;SDS011;6246;50.826;4.712;2023-02-18T12:35:55;3.00;;;1.57;;
12363;SDS011;6246;50.826;4.712;2023-02-18T12:38:32;4.00;;;1.43;;
12363;SDS011;6246;50.826;4.712;2023-02-18T12:51:54;2.53;;;1.10;;
12363;SDS011;6246;50.826;4.712;2023-02-18T12:57:01;2.53;;;1.10;;
12363;SDS011;6246;50.826;4.712;2023-02-18T13:07:19;1.53;;;1.13;;
12363;SDS011;6246;50.826;4.712;2023-02-18T13:15:35;1.70;;;1.10;;
12363;SDS011;6246;50.826;4.712;2023-02-18T13:17:42;1.87;;;1.27;;
12363;SDS011;6246;50.826;4.712;2023-02-18T13:22:44;1.90;;;1.07;;
12363;SDS011;6246;50.826;4.712;2023-02-18T13:25:13;1.97;;;1.37;;
12363;SDS011;6246;50.826;4.712;2023-02-18T13:27:42;2.33;;;1.20;;
12363;SDS011;6246;50.826;4.712;2023-02-18T13:32:54;1.77;;;0.90;;
12363;SDS011;6246;50.826;4.712;2023-02-18T13:35:26;3.23;;;1.20;;
12363;SDS011;6246;50.826;4.712;2023-02-18T13:40:38;2.40;;;1.20;;
12363;SDS011;6246;50.826;4.712;2023-02-18T13:43:38;4.90;;;1.37;;
12363;SDS011;6246;50.826;4.712;2023-02-18T13:46:07;5.47;;;1.23;;
12363;SDS011;6246;50.826;4.712;2023-02-18T13:51:16;1.90;;;1.17;;
12363;SDS011;6246;50.826;4.712;2023-02-18T13:53:43;3.20;;;1.57;;
12363;SDS011;6246;50.826;4.712;2023-02-18T13:59:23;2.67;;;1.37;;
12363;SDS011;6246;50.826;4.712;2023-02-18T14:01:50;3.87;;;1.53;;
12363;SDS011;6246;50.826;4.712;2023-02-18T14:05:13;3.90;;;1.53;;
12363;SDS011;6246;50.826;4.712;2023-02-18T14:09:47;3.13;;;1.63;;
12363;SDS011;6246;50.826;4.712;2023-02-18T14:14:42;1.70;;;1.13;;
12363;SDS011;6246;50.826;4.712;2023-02-18T14:19:37;4.83;;;1.50;;
12363;SDS011;6246;50.826;4.712;2023-02-18T14:24:48;2.30;;;1.00;;
12363;SDS011;6246;50.826;4.712;2023-02-18T14:27:20;1.40;;;1.03;;
12363;SDS011;6246;50.826;4.712;2023-02-18T14:29:50;2.77;;;0.97;;
12363;SDS011;6246;50.826;4.712;2023-02-18T14:32:16;2.27;;;1.20;;
12363;SDS011;6246;50.826;4.712;2023-02-18T14:37:31;2.77;;;1.17;;
12363;SDS011;6246;50.826;4.712;2023-02-18T14:45:47;2.53;;;0.87;;
12363;SDS011;6246;50.826;4.712;2023-02-18T14:50:45;1.53;;;0.87;;
12363;SDS011;6246;50.826;4.712;2023-02-18T14:53:13;3.27;;;1.30;;
12363;SDS011;6246;50.826;4.712;2023-02-18T14:55:46;1.13;;;0.83;;
12363;SDS011;6246;50.826;4.712;2023-02-18T15:03:51;2.57;;;1.20;;
12363;SDS011;6246;50.826;4.712;2023-02-18T15:06:24;5.40;;;1.13;;
12363;SDS011;6246;50.826;4.712;2023-02-18T15:08:51;1.00;;;0.90;;
12363;SDS011;6246;50.826;4.712;2023-02-18T15:11:17;1.63;;;0.80;;
12363;SDS011;6246;50.826;4.712;2023-02-18T15:13:44;2.27;;;1.20;;
12363;SDS011;6246;50.826;4.712;2023-02-18T15:16:29;1.13;;;0.90;;
12363;SDS011;6246;50.826;4.712;2023-02-18T15:18:57;1.73;;;0.93;;
12363;SDS011;6246;50.826;4.712;2023-02-18T15:21:26;1.37;;;1.13;;
12363;SDS011;6246;50.826;4.712;2023-02-18T15:23:52;1.67;;;1.00;;
12363;SDS011;6246;50.826;4.712;2023-02-18T15:26:18;1.47;;;1.00;;
12363;SDS011;6246;50.826;4.712;2023-02-18T15:28:57;2.73;;;0.93;;
12363;SDS011;6246;50.826;4.712;2023-02-18T15:31:24;2.27;;;1.07;;
12363;SDS011;6246;50.826;4.712;2023-02-18T15:33:50;1.33;;;1.20;;
12363;SDS011;6246;50.826;4.712;2023-02-18T15:36:17;1.53;;;1.03;;
12363;SDS011;6246;50.826;4.712;2023-02-18T15:38:43;3.90;;;1.33;;
12363;SDS011;6246;50.826;4.712;2023-02-18T15:41:10;1.67;;;1.00;;
12363;SDS011;6246;50.826;4.712;2023-02-18T15:43:36;1.33;;;1.00;;
12363;SDS011;6246;50.826;4.712;2023-02-18T15:46:05;1.53;;;1.10;;
12363;SDS011;6246;50.826;4.712;2023-02-18T15:48:38;1.07;;;0.70;;
12363;SDS011;6246;50.826;4.712;2023-02-18T15:51:12;0.77;;;0.77;;
12363;SDS011;6246;50.826;4.712;2023-02-18T15:53:39;2.30;;;0.90;;
12363;SDS011;6246;50.826;4.712;2023-02-18T15:56:11;1.00;;;0.70;;
12363;SDS011;6246;50.826;4.712;2023-02-18T15:58:40;3.83;;;1.20;;
12363;SDS011;6246;50.826;4.712;2023-02-18T16:01:06;2.00;;;0.90;;
12363;SDS011;6246;50.826;4.712;2023-02-18T16:03:48;2.60;;;0.77;;
12363;SDS011;6246;50.826;4.712;2023-02-18T16:06:22;1.83;;;1.13;;
12363;SDS011;6246;50.826;4.712;2023-02-18T16:11:24;1.67;;;0.90;;
12363;SDS011;6246;50.826;4.712;2023-02-18T16:13:50;1.27;;;1.10;;
12363;SDS011;6246;50.826;4.712;2023-02-18T16:18:55;1.83;;;1.07;;
12363;SDS011;6246;50.826;4.712;2023-02-18T16:21:24;1.43;;;1.00;;
12363;SDS011;6246;50.826;4.712;2023-02-18T16:23:57;1.10;;;0.93;;
12363;SDS011;6246;50.826;4.712;2023-02-18T16:26:31;0.63;;;0.63;;
12363;SDS011;6246;50.826;4.712;2023-02-18T16:31:34;1.27;;;0.83;;
12363;SDS011;6246;50.826;4.712;2023-02-18T16:34:00;0.93;;;0.70;;
12363;SDS011;6246;50.826;4.712;2023-02-18T16:36:26;1.67;;;0.90;;
12363;SDS011;6246;50.826;4.712;2023-02-18T16:38:52;2.80;;;1.20;;
12363;SDS011;6246;50.826;4.712;2023-02-18T16:41:18;1.37;;;0.80;;
12363;SDS011;6246;50.826;4.712;2023-02-18T16:43:44;2.03;;;0.90;;
12363;SDS011;6246;50.826;4.712;2023-02-18T16:46:16;1.57;;;1.10;;
12363;SDS011;6246;50.826;4.712;2023-02-18T16:48:45;1.60;;;0.80;;
12363;SDS011;6246;50.826;4.712;2023-02-18T16:51:13;1.03;;;0.80;;
12363;SDS011;6246;50.826;4.712;2023-02-18T16:53:43;1.87;;;1.00;;
12363;SDS011;6246;50.826;4.712;2023-02-18T16:56:13;0.70;;;0.70;;
12363;SDS011;6246;50.826;4.712;2023-02-18T16:58:39;2.23;;;1.13;;
12363;SDS011;6246;50.826;4.712;2023-02-18T17:01:19;2.63;;;1.00;;
12363;SDS011;6246;50.826;4.712;2023-02-18T17:03:46;1.27;;;0.83;;
12363;SDS011;6246;50.826;4.712;2023-02-18T17:06:12;1.40;;;1.10;;
12363;SDS011;6246;50.826;4.712;2023-02-18T17:08:38;2.63;;;0.90;;
12363;SDS011;6246;50.826;4.712;2023-02-18T17:11:04;2.30;;;0.80;;
12363;SDS011;6246;50.826;4.712;2023-02-18T17:13:30;2.87;;;1.00;;
12363;SDS011;6246;50.826;4.712;2023-02-18T17:15:57;1.67;;;1.17;;
12363;SDS011;6246;50.826;4.712;2023-02-18T17:18:23;0.97;;;0.77;;
12363;SDS011;6246;50.826;4.712;2023-02-18T17:20:50;1.60;;;1.10;;
12363;SDS011;6246;50.826;4.712;2023-02-18T17:23:18;1.43;;;1.00;;
12363;SDS011;6246;50.826;4.712;2023-02-18T17:25:45;1.57;;;0.97;;
12363;SDS011;6246;50.826;4.712;2023-02-18T17:28:13;0.93;;;0.87;;
12363;SDS011;6246;50.826;4.712;2023-02-18T17:30:44;2.20;;;1.20;;
12363;SDS011;6246;50.826;4.712;2023-02-18T17:33:11;1.37;;;0.80;;
12363;SDS011;6246;50.826;4.712;2023-02-18T17:35:39;1.30;;;1.03;;
12363;SDS011;6246;50.826;4.712;2023-02-18T17:38:15;1.93;;;1.40;;
12363;SDS011;6246;50.826;4.712;2023-02-18T17:40:41;1.70;;;1.10;;
12363;SDS011;6246;50.826;4.712;2023-02-18T17:43:14;3.43;;;2.00;;
12363;SDS011;6246;50.826;4.712;2023-02-18T17:45:53;3.10;;;2.00;;
12363;SDS011;6246;50.826;4.712;2023-02-18T17:48:19;3.73;;;3.10;;
12363;SDS011;6246;50.826;4.712;2023-02-18T17:50:46;4.77;;;3.57;;
12363;SDS011;6246;50.826;4.712;2023-02-18T17:53:12;6.67;;;4.90;;
12363;SDS011;6246;50.826;4.712;2023-02-18T17:55:39;6.93;;;4.90;;
12363;SDS011;6246;50.826;4.712;2023-02-18T17:58:06;8.07;;;5.10;;
12363;SDS011;6246;50.826;4.712;2023-02-18T18:00:33;7.90;;;5.47;;
12363;SDS011;6246;50.826;4.712;2023-02-18T18:03:00;8.70;;;5.53;;